createdAt,value
2022-12-25T00:00:41.939Z,12.90
2022-12-25T00:03:09.672Z,12.30
2022-12-25T00:05:39.300Z,13.07
2022-12-25T00:08:06.700Z,13.18
2022-12-25T00:10:33.620Z,15.10
2022-12-25T00:13:00.138Z,14.15
2022-12-25T00:15:26.658Z,12.93
2022-12-25T00:17:53.142Z,13.80
2022-12-25T00:20:19.701Z,12.00
2022-12-25T00:22:46.271Z,11.80
2022-12-25T00:25:12.781Z,11.32
2022-12-25T00:27:39.328Z,11.40
2022-12-25T00:30:10.184Z,11.82
2022-12-25T00:32:37.505Z,11.73
2022-12-25T00:35:05.211Z,12.30
2022-12-25T00:37:31.706Z,11.73
2022-12-25T00:39:58.885Z,11.75
2022-12-25T00:42:26.951Z,11.35
2022-12-25T00:44:53.433Z,10.75
2022-12-25T00:47:20.026Z,11.70
2022-12-25T00:49:46.722Z,12.18
2022-12-25T00:52:13.445Z,11.13
2022-12-25T00:54:39.945Z,11.88
2022-12-25T00:57:06.571Z,12.13
2022-12-25T00:59:34.432Z,12.70
2022-12-25T01:02:21.715Z,11.73
2022-12-25T01:04:50.904Z,12.35
2022-12-25T01:07:18.278Z,12.00
2022-12-25T01:10:04.419Z,11.52
2022-12-25T01:12:36.207Z,13.00
2022-12-25T01:15:04.314Z,12.52
2022-12-25T01:17:30.837Z,12.93
2022-12-25T01:19:57.334Z,13.18
2022-12-25T01:22:23.949Z,12.80
2022-12-25T01:24:50.733Z,13.93
2022-12-25T01:27:17.394Z,13.93
2022-12-25T01:29:45.230Z,12.73
2022-12-25T01:32:12.148Z,13.35
2022-12-25T01:34:39.142Z,11.70
2022-12-25T01:37:05.689Z,12.93
2022-12-25T01:39:32.207Z,11.82
2022-12-25T01:41:58.644Z,12.32
2022-12-25T01:44:37.419Z,10.48
2022-12-25T01:47:05.331Z,12.02
2022-12-25T01:49:35.160Z,11.85
2022-12-25T01:52:14.915Z,11.93
2022-12-25T01:55:12.596Z,12.52
2022-12-25T01:57:40.507Z,12.07
2022-12-25T02:00:09.092Z,12.40
2022-12-25T02:02:37.039Z,11.93
2022-12-25T02:05:25.923Z,12.77
2022-12-25T02:07:53.755Z,12.93
2022-12-25T02:10:20.431Z,12.02
2022-12-25T02:12:48.306Z,13.02
2022-12-25T02:15:20.933Z,11.98
2022-12-25T02:17:53.336Z,13.35
2022-12-25T02:20:31.951Z,12.73
2022-12-25T02:23:13.643Z,12.45
2022-12-25T02:26:30.067Z,13.35
2022-12-25T02:29:04.931Z,12.73
2022-12-25T02:31:44.468Z,12.38
2022-12-25T02:34:31.682Z,12.85
2022-12-25T02:36:58.152Z,12.32
2022-12-25T02:39:58.224Z,13.02
2022-12-25T02:42:47.619Z,12.60
2022-12-25T02:45:38.270Z,11.55
2022-12-25T02:48:25.111Z,12.23
2022-12-25T02:51:11.777Z,13.02
2022-12-25T02:56:46.204Z,11.85
2022-12-25T02:59:34.115Z,13.75
2022-12-25T03:02:21.248Z,12.95
2022-12-25T03:05:09.883Z,13.57
2022-12-25T03:07:40.885Z,12.95
2022-12-25T03:10:28.552Z,14.43
2022-12-25T03:13:14.514Z,13.32
2022-12-25T03:16:00.183Z,12.05
2022-12-25T03:18:31.654Z,13.93
2022-12-25T03:21:18.343Z,12.40
2022-12-25T03:24:22.244Z,13.07
2022-12-25T03:26:55.026Z,12.80
2022-12-25T03:29:52.350Z,12.82
2022-12-25T03:32:40.614Z,11.88
2022-12-25T03:35:33.290Z,12.88
2022-12-25T03:38:35.825Z,13.10
2022-12-25T03:41:30.037Z,13.93
2022-12-25T03:44:35.396Z,14.40
2022-12-25T03:47:35.181Z,15.30
2022-12-25T03:50:24.474Z,14.15
2022-12-25T03:53:13.139Z,16.70
2022-12-25T03:55:59.656Z,16.58
2022-12-25T03:58:46.298Z,15.98
2022-12-25T04:04:17.317Z,16.67
2022-12-25T04:07:02.544Z,15.05
2022-12-25T04:09:47.433Z,16.33
2022-12-25T04:12:32.653Z,14.65
2022-12-25T04:15:17.956Z,15.73
2022-12-25T04:18:02.916Z,14.15
2022-12-25T04:20:48.030Z,16.85
2022-12-25T04:23:33.209Z,14.50
2022-12-25T04:26:18.380Z,15.82
2022-12-25T04:29:03.628Z,15.85
2022-12-25T04:31:48.785Z,15.73
2022-12-25T04:34:33.795Z,14.60
2022-12-25T04:37:00.294Z,15.55
2022-12-25T04:39:26.853Z,16.00
2022-12-25T04:41:53.400Z,16.92
2022-12-25T04:44:19.938Z,15.77
2022-12-25T04:46:46.557Z,16.83
2022-12-25T04:49:13.146Z,17.85
2022-12-25T04:51:39.759Z,16.75
2022-12-25T04:54:06.560Z,16.08
2022-12-25T04:56:33.432Z,14.40
2022-12-25T04:59:00.205Z,16.48
2022-12-25T05:01:27.312Z,16.38
2022-12-25T05:03:53.904Z,17.05
2022-12-25T05:06:22.381Z,16.23
2022-12-25T05:08:48.977Z,16.33
2022-12-25T05:11:16.591Z,17.55
2022-12-25T05:13:43.530Z,17.15
2022-12-25T05:16:16.367Z,15.50
2022-12-25T05:18:43.628Z,16.33
2022-12-25T05:21:13.342Z,16.85
2022-12-25T05:23:48.246Z,17.58
2022-12-25T05:26:17.507Z,16.50
2022-12-25T05:28:44.129Z,16.05
2022-12-25T05:31:11.050Z,15.15
2022-12-25T05:33:37.663Z,16.85
2022-12-25T05:36:06.228Z,15.32
2022-12-25T05:38:32.872Z,14.90
2022-12-25T05:40:59.629Z,12.57
2022-12-25T05:43:26.888Z,12.68
2022-12-25T05:45:55.241Z,12.50
2022-12-25T05:48:22.875Z,13.00
2022-12-25T05:50:49.673Z,11.25
2022-12-25T05:53:17.678Z,11.23
2022-12-25T05:55:44.525Z,10.48
2022-12-25T05:58:13.003Z,10.48
2022-12-25T06:00:41.016Z,10.73
2022-12-25T06:03:07.654Z,8.30
2022-12-25T06:05:34.180Z,8.40
2022-12-25T06:08:00.647Z,8.23
2022-12-25T06:10:27.117Z,8.00
2022-12-25T06:12:54.653Z,7.68
2022-12-25T06:15:21.109Z,7.43
2022-12-25T06:17:47.694Z,8.40
2022-12-25T06:20:14.255Z,8.13
2022-12-25T06:22:40.702Z,7.07
2022-12-25T06:25:08.614Z,6.70
2022-12-25T06:27:35.136Z,6.78
2022-12-25T06:30:01.742Z,8.05
2022-12-25T06:32:28.332Z,6.65
2022-12-25T06:34:54.861Z,6.88
2022-12-25T06:37:21.410Z,6.30
2022-12-25T06:39:48.185Z,6.38
2022-12-25T06:42:14.635Z,6.45
2022-12-25T06:44:41.149Z,5.85
2022-12-25T06:47:07.608Z,6.10
2022-12-25T06:49:34.107Z,7.00
2022-12-25T06:52:00.756Z,6.38
2022-12-25T06:54:27.353Z,6.43
2022-12-25T06:56:53.878Z,5.20
2022-12-25T06:59:20.492Z,5.82
2022-12-25T07:01:53.529Z,5.30
2022-12-25T07:04:42.541Z,6.20
2022-12-25T07:07:09.915Z,5.75
2022-12-25T07:09:38.735Z,6.80
2022-12-25T07:12:27.477Z,7.35
2022-12-25T07:14:55.425Z,7.88
2022-12-25T07:17:22.891Z,9.32
2022-12-25T07:19:50.262Z,9.05
2022-12-25T07:22:16.924Z,8.80
2022-12-25T07:24:43.576Z,8.52
2022-12-25T07:27:10.180Z,7.80
2022-12-25T07:29:36.738Z,8.63
2022-12-25T07:32:03.423Z,7.93
2022-12-25T07:34:30.011Z,9.65
2022-12-25T07:36:56.467Z,8.93
2022-12-25T07:39:24.022Z,8.82
2022-12-25T07:41:51.194Z,9.20
2022-12-25T07:44:17.953Z,8.85
2022-12-25T07:46:44.453Z,8.48
2022-12-25T07:49:11.306Z,9.75
2022-12-25T07:51:37.835Z,9.30
2022-12-25T07:54:04.402Z,8.80
2022-12-25T07:56:30.985Z,8.95
2022-12-25T07:58:57.528Z,8.57
2022-12-25T08:01:26.911Z,9.10
2022-12-25T08:03:59.235Z,9.07
2022-12-25T08:06:29.878Z,8.80
2022-12-25T08:08:57.938Z,10.15
2022-12-25T08:11:24.692Z,9.32
2022-12-25T08:13:51.211Z,9.52
2022-12-25T08:16:17.840Z,9.07
2022-12-25T08:18:44.577Z,8.60
2022-12-25T08:21:13.514Z,8.25
2022-12-25T08:23:42.940Z,7.95
2022-12-25T08:26:13.217Z,8.80
2022-12-25T08:28:40.056Z,9.35
2022-12-25T08:31:14.504Z,8.75
2022-12-25T08:33:41.151Z,8.65
2022-12-25T08:36:10.184Z,8.90
2022-12-25T08:38:37.244Z,8.77
2022-12-25T08:41:03.807Z,8.93
2022-12-25T08:43:30.319Z,8.48
2022-12-25T08:45:56.937Z,8.10
2022-12-25T08:48:23.531Z,7.57
2022-12-25T08:50:52.205Z,7.38
2022-12-25T08:53:19.010Z,8.20
2022-12-25T08:55:49.005Z,7.53
2022-12-25T08:58:18.931Z,7.35
2022-12-25T09:00:45.597Z,7.35
2022-12-25T09:03:12.159Z,7.13
2022-12-25T09:05:38.698Z,5.85
2022-12-25T09:08:05.392Z,6.68
2022-12-25T09:10:34.798Z,7.28
2022-12-25T09:13:01.341Z,6.32
2022-12-25T09:15:28.063Z,6.35
2022-12-25T09:17:54.619Z,5.70
2022-12-25T09:20:21.279Z,5.50
2022-12-25T09:22:47.825Z,7.18
2022-12-25T09:25:14.453Z,7.05
2022-12-25T09:27:40.928Z,6.68
2022-12-25T09:30:08.040Z,7.07
2022-12-25T09:32:34.591Z,7.30
2022-12-25T09:35:01.166Z,6.95
2022-12-25T09:37:28.634Z,6.28
2022-12-25T09:39:55.163Z,5.90
2022-12-25T09:42:25.716Z,6.72
2022-12-25T09:45:00.786Z,5.93
2022-12-25T09:47:36.363Z,6.53
2022-12-25T09:50:30.412Z,6.93
2022-12-25T09:53:07.323Z,5.95
2022-12-25T09:55:38.343Z,6.00
2022-12-25T09:58:12.410Z,6.60
2022-12-25T10:00:47.208Z,7.45
2022-12-25T10:03:27.697Z,5.82
2022-12-25T10:09:07.110Z,6.32
2022-12-25T10:12:07.352Z,6.75
2022-12-25T10:15:14.309Z,6.25
2022-12-25T10:17:52.124Z,6.93
2022-12-25T10:20:35.972Z,6.70
2022-12-25T10:23:09.934Z,5.88
2022-12-25T10:25:38.682Z,6.70
2022-12-25T10:28:14.170Z,6.07
2022-12-25T10:30:46.016Z,6.75
2022-12-25T10:33:17.203Z,6.72
2022-12-25T10:35:44.454Z,5.85
2022-12-25T10:38:19.038Z,5.63
2022-12-25T10:41:20.946Z,6.65
2022-12-25T10:43:53.950Z,5.43
2022-12-25T10:46:22.039Z,6.53
2022-12-25T10:48:58.375Z,6.03
2022-12-25T10:51:36.769Z,6.65
2022-12-25T10:54:18.291Z,7.65
2022-12-25T10:57:01.685Z,6.57
2022-12-25T10:59:30.709Z,6.00
2022-12-25T11:02:15.811Z,6.50
2022-12-25T11:04:42.943Z,6.15
2022-12-25T11:07:18.549Z,6.35
2022-12-25T11:10:08.052Z,6.35
2022-12-25T11:12:43.058Z,6.60
2022-12-25T11:15:31.442Z,6.28
2022-12-25T11:17:58.248Z,6.22
2022-12-25T11:20:25.386Z,5.82
2022-12-25T11:22:52.716Z,6.15
2022-12-25T11:25:27.740Z,6.32
2022-12-25T11:28:03.545Z,6.22
2022-12-25T11:30:32.768Z,6.88
2022-12-25T11:33:04.991Z,7.63
2022-12-25T11:35:37.397Z,6.53
2022-12-25T11:38:04.067Z,7.43
2022-12-25T11:40:49.114Z,6.38
2022-12-25T11:43:23.807Z,33.28
2022-12-25T11:45:59.528Z,13.77
2022-12-25T11:48:31.818Z,7.38
2022-12-25T11:51:01.410Z,5.90
2022-12-25T11:53:44.333Z,6.75
2022-12-25T11:56:31.063Z,5.85
2022-12-25T11:59:06.542Z,6.55
2022-12-25T12:01:44.663Z,7.07
2022-12-25T12:04:27.466Z,6.32
2022-12-25T12:07:01.737Z,6.93
2022-12-25T12:10:05.684Z,6.82
2022-12-25T12:12:48.718Z,7.00
2022-12-25T12:15:44.337Z,7.53
2022-12-25T12:18:29.224Z,7.38
2022-12-25T12:21:01.941Z,7.53
2022-12-25T12:23:31.381Z,7.32
2022-12-25T12:25:58.076Z,7.90
2022-12-25T12:28:29.044Z,8.43
2022-12-25T12:31:07.706Z,8.57
2022-12-25T12:33:43.894Z,8.63
2022-12-25T12:36:14.776Z,8.35
2022-12-25T12:38:43.577Z,8.02
2022-12-25T12:41:12.454Z,7.53
2022-12-25T12:43:54.159Z,8.00
2022-12-25T12:46:30.194Z,7.97
2022-12-25T12:49:20.791Z,8.85
2022-12-25T12:51:47.573Z,8.23
2022-12-25T12:54:26.144Z,8.70
2022-12-25T12:57:00.788Z,8.15
2022-12-25T12:59:33.373Z,9.57
2022-12-25T13:02:21.533Z,8.98
2022-12-25T13:04:53.650Z,9.30
2022-12-25T13:07:28.450Z,8.98
2022-12-25T13:10:20.804Z,10.77
2022-12-25T13:12:53.361Z,9.93
2022-12-25T13:15:22.979Z,8.77
2022-12-25T13:17:50.174Z,9.52
2022-12-25T13:20:39.802Z,9.55
2022-12-25T13:23:14.121Z,9.23
2022-12-25T13:25:40.728Z,9.55
2022-12-25T13:28:31.608Z,8.18
2022-12-25T13:31:02.270Z,10.63
2022-12-25T13:33:29.491Z,10.90
2022-12-25T13:35:56.447Z,9.80
2022-12-25T13:38:25.783Z,10.68
2022-12-25T13:41:14.042Z,10.15
2022-12-25T13:43:42.684Z,11.10
2022-12-25T13:46:13.800Z,10.13
2022-12-25T13:48:41.410Z,10.07
2022-12-25T13:51:16.959Z,10.00
2022-12-25T13:53:44.237Z,9.88
2022-12-25T13:56:15.717Z,11.93
2022-12-25T13:58:43.263Z,10.77
2022-12-25T14:01:11.838Z,10.27
2022-12-25T14:03:47.103Z,10.43
2022-12-25T14:06:25.777Z,11.98
2022-12-25T14:08:54.939Z,11.43
2022-12-25T14:11:23.949Z,10.48
2022-12-25T14:13:56.543Z,10.73
2022-12-25T14:16:24.977Z,11.68
2022-12-25T14:18:56.524Z,11.02
2022-12-25T14:21:34.005Z,11.77
2022-12-25T14:24:00.848Z,11.25
2022-12-25T14:26:32.970Z,10.65
2022-12-25T14:29:05.559Z,11.20
2022-12-25T14:31:33.168Z,10.50
2022-12-25T14:34:06.030Z,11.18
2022-12-25T14:36:33.855Z,11.40
2022-12-25T14:39:03.916Z,11.00
2022-12-25T14:41:39.510Z,10.48
2022-12-25T14:44:25.490Z,10.68
2022-12-25T14:47:23.800Z,11.35
2022-12-25T14:49:50.963Z,9.60
2022-12-25T14:52:37.379Z,11.60
2022-12-25T14:55:07.280Z,11.23
2022-12-25T14:57:38.669Z,10.38
2022-12-25T15:00:22.364Z,9.77
2022-12-25T15:02:54.711Z,11.40
2022-12-25T15:05:26.014Z,10.27
2022-12-25T15:08:08.881Z,11.35
2022-12-25T15:13:22.560Z,11.13
2022-12-25T15:15:53.630Z,12.32
2022-12-25T15:18:22.556Z,11.45
2022-12-25T15:20:53.532Z,10.70
2022-12-25T15:23:21.172Z,10.98
2022-12-25T15:25:48.565Z,10.40
2022-12-25T15:28:15.108Z,10.95
2022-12-25T15:30:41.862Z,10.90
2022-12-25T15:33:16.160Z,11.10
2022-12-25T15:35:45.741Z,10.00
2022-12-25T15:38:12.843Z,10.98
2022-12-25T15:40:40.622Z,11.57
2022-12-25T15:43:14.543Z,12.10
2022-12-25T15:45:54.192Z,11.95
2022-12-25T15:48:20.835Z,11.85
2022-12-25T15:50:47.682Z,12.05
2022-12-25T15:53:14.226Z,12.05
2022-12-25T15:55:41.244Z,12.05
2022-12-25T15:58:12.759Z,12.02
2022-12-25T16:00:39.405Z,13.18
2022-12-25T16:03:06.076Z,13.02
2022-12-25T16:05:32.673Z,10.68
2022-12-25T16:07:59.206Z,12.68
2022-12-25T16:10:25.910Z,12.85
2022-12-25T16:12:52.666Z,13.02
2022-12-25T16:15:19.226Z,11.48
2022-12-25T16:17:45.792Z,13.43
2022-12-25T16:20:15.634Z,14.20
2022-12-25T16:22:42.463Z,13.52
2022-12-25T16:25:18.591Z,13.20
2022-12-25T16:27:45.934Z,13.07
2022-12-25T16:30:15.394Z,14.07
2022-12-25T16:32:42.776Z,14.43
2022-12-25T16:37:57.096Z,13.55
2022-12-25T16:40:23.801Z,14.73
2022-12-25T16:42:50.605Z,14.38
2022-12-25T16:45:17.586Z,15.20
2022-12-25T16:47:44.407Z,14.35
2022-12-25T16:50:11.150Z,13.95
2022-12-25T16:52:38.528Z,14.98
2022-12-25T16:55:10.139Z,14.20
2022-12-25T16:57:37.296Z,12.82
2022-12-25T17:00:04.957Z,13.95
2022-12-25T17:02:32.432Z,15.48
2022-12-25T17:05:00.679Z,14.48
2022-12-25T17:09:57.379Z,14.45
2022-12-25T17:12:29.360Z,15.80
2022-12-25T17:14:56.018Z,16.75
2022-12-25T17:17:25.968Z,17.55
2022-12-25T17:19:55.666Z,18.30
2022-12-25T17:22:22.380Z,16.83
2022-12-25T17:24:51.890Z,18.02
2022-12-25T17:27:24.293Z,17.20
2022-12-25T17:29:55.221Z,18.20
2022-12-25T17:32:21.844Z,19.02
2022-12-25T17:34:48.517Z,18.58
2022-12-25T17:37:15.103Z,18.55
2022-12-25T17:39:41.872Z,20.63
2022-12-25T17:42:09.420Z,19.38
2022-12-25T17:44:36.141Z,19.42
2022-12-25T17:47:02.958Z,21.35
2022-12-25T17:49:36.612Z,19.77
2022-12-25T17:52:03.835Z,21.50
2022-12-25T17:54:39.155Z,19.42
2022-12-25T17:57:06.004Z,19.98
2022-12-25T17:59:32.701Z,20.30
2022-12-25T18:01:59.410Z,18.88
2022-12-25T18:04:26.221Z,19.17
2022-12-25T18:06:52.675Z,19.25
2022-12-25T18:09:19.912Z,18.45
2022-12-25T18:11:46.750Z,18.38
2022-12-25T18:14:15.827Z,19.27
2022-12-25T18:16:44.538Z,19.13
2022-12-25T18:19:12.670Z,18.45
2022-12-25T18:21:39.471Z,17.35
2022-12-25T18:24:14.827Z,18.35
2022-12-25T18:26:41.760Z,18.17
2022-12-25T18:29:08.477Z,18.10
2022-12-25T18:31:35.194Z,16.65
2022-12-25T18:34:04.586Z,17.73
2022-12-25T18:36:34.205Z,17.50
2022-12-25T18:39:04.053Z,19.10
2022-12-25T18:41:30.873Z,17.52
2022-12-25T18:44:00.113Z,17.38
2022-12-25T18:46:27.606Z,17.92
2022-12-25T18:48:56.137Z,18.65
2022-12-25T18:51:36.554Z,17.77
2022-12-25T18:56:29.911Z,17.50
2022-12-25T18:58:59.731Z,19.08
2022-12-25T19:01:26.748Z,18.67
2022-12-25T19:03:58.663Z,19.63
2022-12-25T19:06:33.110Z,20.55
2022-12-25T19:08:59.741Z,20.30
2022-12-25T19:11:26.347Z,20.35
2022-12-25T19:13:53.075Z,20.45
2022-12-25T19:16:19.706Z,21.48
2022-12-25T19:18:46.222Z,20.05
2022-12-25T19:21:12.798Z,19.63
2022-12-25T19:23:39.614Z,19.05
2022-12-25T19:26:07.704Z,18.98
2022-12-25T19:28:34.994Z,20.77
2022-12-25T19:31:02.107Z,16.92
2022-12-25T19:33:31.732Z,18.75
2022-12-25T19:36:02.274Z,17.17
2022-12-25T19:38:29.291Z,17.70
2022-12-25T19:41:01.949Z,15.10
2022-12-25T19:43:36.867Z,17.20
2022-12-25T19:46:04.544Z,15.85
2022-12-25T19:48:32.581Z,15.98
2022-12-25T19:51:02.297Z,16.48
2022-12-25T19:53:30.378Z,15.45
2022-12-25T19:56:01.619Z,15.35
2022-12-25T19:58:28.134Z,13.88
2022-12-25T20:01:02.978Z,16.30
2022-12-25T20:03:29.974Z,14.23
2022-12-25T20:05:57.057Z,13.65
2022-12-25T20:08:24.130Z,15.57
2022-12-25T20:10:53.657Z,15.02
2022-12-25T20:13:20.382Z,15.27
2022-12-25T20:15:47.030Z,14.90
2022-12-25T20:18:13.792Z,15.73
2022-12-25T20:20:40.786Z,17.33
2022-12-25T20:23:07.411Z,16.77
2022-12-25T20:25:33.896Z,17.63
2022-12-25T20:28:00.465Z,16.10
2022-12-25T20:30:26.985Z,19.00
2022-12-25T20:32:53.693Z,19.83
2022-12-25T20:35:20.150Z,19.48
2022-12-25T20:37:46.753Z,17.15
2022-12-25T20:40:13.528Z,16.95
2022-12-25T20:42:40.031Z,22.00
2022-12-25T20:45:07.561Z,17.58
2022-12-25T20:47:34.644Z,18.90
2022-12-25T20:50:01.312Z,19.30
2022-12-25T20:52:27.834Z,22.23
2022-12-25T20:54:54.299Z,21.95
2022-12-25T20:57:23.108Z,21.75
2022-12-25T20:59:49.742Z,22.85
2022-12-25T21:02:35.379Z,20.88
2022-12-25T21:05:07.887Z,21.75
2022-12-25T21:07:34.416Z,21.42
2022-12-25T21:10:00.944Z,21.23
2022-12-25T21:12:27.466Z,20.00
2022-12-25T21:14:53.983Z,16.77
2022-12-25T21:17:20.780Z,19.65
2022-12-25T21:19:47.374Z,17.17
2022-12-25T21:22:14.145Z,15.80
2022-12-25T21:24:40.594Z,15.65
2022-12-25T21:27:07.130Z,17.08
2022-12-25T21:29:33.712Z,17.88
2022-12-25T21:32:18.876Z,17.77
2022-12-25T21:34:45.378Z,16.60
2022-12-25T21:37:11.890Z,16.77
2022-12-25T21:39:38.371Z,16.38
2022-12-25T21:42:05.380Z,19.55
2022-12-25T21:44:31.896Z,16.77
2022-12-25T21:46:58.397Z,17.95
2022-12-25T21:49:43.565Z,17.80
2022-12-25T21:52:10.512Z,17.13
2022-12-25T21:54:37.471Z,18.27
2022-12-25T21:57:03.981Z,18.35
2022-12-25T21:59:30.493Z,19.02
2022-12-25T22:01:57.123Z,17.80
2022-12-25T22:04:26.277Z,20.67
2022-12-25T22:07:11.412Z,18.38
2022-12-25T22:09:38.150Z,19.05
2022-12-25T22:12:27.272Z,19.23
2022-12-25T22:15:02.737Z,17.80
2022-12-25T22:17:50.069Z,20.30
2022-12-25T22:20:28.129Z,18.30
2022-12-25T22:22:54.881Z,18.05
2022-12-25T22:25:21.516Z,17.92
2022-12-25T22:27:48.478Z,17.83
2022-12-25T22:30:20.515Z,18.30
2022-12-25T22:32:48.119Z,19.65
2022-12-25T22:35:15.884Z,18.38
2022-12-25T22:37:43.183Z,19.67
2022-12-25T22:40:12.481Z,21.55
2022-12-25T22:42:39.035Z,22.02
2022-12-25T22:45:06.290Z,20.58
2022-12-25T22:47:33.022Z,19.25
2022-12-25T22:49:59.583Z,23.77
2022-12-25T22:52:26.378Z,20.88
2022-12-25T22:54:52.960Z,21.40
2022-12-25T22:57:19.512Z,19.40
2022-12-25T22:59:46.020Z,20.40
2022-12-25T23:02:12.647Z,20.40
2022-12-25T23:04:39.180Z,19.33
2022-12-25T23:07:05.935Z,19.05
2022-12-25T23:09:32.360Z,19.40
2022-12-25T23:11:59.685Z,19.90
2022-12-25T23:14:39.310Z,21.02
2022-12-25T23:17:32.137Z,20.27
2022-12-25T23:20:19.358Z,22.15
2022-12-25T23:23:05.210Z,21.35
2022-12-25T23:25:52.585Z,20.30
2022-12-25T23:28:39.089Z,19.58
2022-12-25T23:31:06.619Z,18.95
2022-12-25T23:33:33.151Z,17.63
2022-12-25T23:35:59.652Z,17.58
2022-12-25T23:38:26.176Z,18.30
2022-12-25T23:40:52.717Z,19.30
2022-12-25T23:43:19.428Z,19.58
2022-12-25T23:45:45.913Z,19.98
2022-12-25T23:48:12.403Z,19.67
2022-12-25T23:50:38.938Z,18.88
2022-12-25T23:53:05.352Z,20.02
2022-12-25T23:55:33.246Z,19.63
2022-12-25T23:57:59.740Z,21.38
